Time;durP1;ratioP1;P1;durP2;ratioP2;P2;SDS_P1;SDS_P2;PMS_P1;PMS_P2;Temp;Humidity;BMP_temperature;BMP_pressure;BME280_temperature;BME280_humidity;BME280_pressure;Samples;Min_cycle;Max_cycle;Signal;HPM_P1;HPM_P2
2021/06/19 00:01:17;;;;;;;;;4.00;4.00;;;;;24.11;57.57;101048.22;4830577;29;45312;-65
2021/06/19 00:03:42;;;;;;;;;5.00;5.00;;;;;24.16;57.82;101064.22;4813572;29;47082;-65
2021/06/19 00:06:07;;;;;;;;;6.25;5.25;;;;;24.12;57.65;101060.84;4813443;29;65002;-65
2021/06/19 00:08:33;;;;;;;;;4.75;4.75;;;;;24.07;57.80;101043.16;4813363;29;60587;-65
2021/06/19 00:10:58;;;;;;;;;6.50;6.50;;;;;24.07;57.68;101041.28;4813047;29;69463;-65
2021/06/19 00:13:23;;;;;;;;;5.00;5.00;;;;;24.03;57.77;101045.28;4813754;29;45367;-65
2021/06/19 00:15:49;;;;;;;;;6.50;6.00;;;;;24.03;58.06;101050.75;4813456;29;61376;-65
2021/06/19 00:18:14;;;;;;;;;7.50;6.00;;;;;24.02;57.67;101068.97;4801098;29;45797;-65
2021/06/19 00:20:40;;;;;;;;;4.00;4.00;;;;;23.98;57.98;101056.56;4812601;29;64502;-65
2021/06/19 00:23:05;;;;;;;;;4.75;4.75;;;;;23.98;57.66;101055.72;4829582;29;60370;-65
2021/06/19 00:25:30;;;;;;;;;6.00;4.50;;;;;23.97;57.73;101041.22;4830122;29;45334;-65
2021/06/19 00:27:56;;;;;;;;;5.25;5.25;;;;;24.02;58.26;101055.34;4812900;29;65387;-65
2021/06/19 00:30:21;;;;;;;;;6.50;5.00;;;;;23.96;58.05;101050.38;4828866;29;45319;-65
2021/06/19 00:32:47;;;;;;;;;4.75;4.00;;;;;23.92;58.21;101054.34;4813208;29;47288;-65
2021/06/19 00:35:12;;;;;;;;;3.75;3.75;;;;;23.91;58.19;101052.63;4798553;29;45389;-65
2021/06/19 00:37:38;;;;;;;;;4.00;4.00;;;;;23.93;58.06;101049.78;4813512;29;45369;-65
2021/06/19 00:40:05;;;;;;;;;5.00;3.75;;;;;23.91;57.96;101046.34;4829806;29;45256;-65
2021/06/19 00:42:30;;;;;;;;;4.75;4.75;;;;;23.90;57.93;101047.31;4797874;29;48650;-65
2021/06/19 00:44:56;;;;;;;;;5.00;4.50;;;;;23.90;57.92;101045.44;4829176;29;45241;-65
2021/06/19 00:47:23;;;;;;;;;6.25;5.00;;;;;23.89;57.59;101043.72;4795056;29;45334;-65
2021/06/19 00:49:48;;;;;;;;;4.00;4.00;;;;;23.91;58.05;101054.50;4810214;29;45449;-65
2021/06/19 00:52:13;;;;;;;;;4.00;4.00;;;;;23.85;57.85;101045.81;4824579;29;71316;-65
2021/06/19 00:54:39;;;;;;;;;6.00;6.00;;;;;23.85;58.32;101064.03;4813431;29;45419;-65
2021/06/19 00:57:05;;;;;;;;;5.00;5.00;;;;;23.84;58.22;101067.78;4829425;29;45309;-65
2021/06/19 00:59:31;;;;;;;;;5.00;5.00;;;;;23.82;58.12;101067.03;4813239;29;45221;-65
2021/06/19 01:01:56;;;;;;;;;5.00;5.00;;;;;23.76;58.20;101065.66;4828889;29;61719;-65
2021/06/19 01:04:21;;;;;;;;;4.75;4.75;;;;;23.77;57.99;101064.66;4812275;29;63986;-65
2021/06/19 01:06:47;;;;;;;;;3.75;3.75;;;;;23.76;58.02;101060.19;4829186;29;56445;-65
2021/06/19 01:09:12;;;;;;;;;4.00;4.00;;;;;23.71;58.28;101053.41;4829573;29;45308;-65
2021/06/19 01:11:38;;;;;;;;;4.25;4.25;;;;;23.71;57.90;101058.88;4812615;29;48593;-65
2021/06/19 01:14:04;;;;;;;;;6.00;4.00;;;;;23.68;57.92;101054.53;4797990;29;45412;-65
2021/06/19 01:16:29;;;;;;;;;6.25;5.75;;;;;23.69;57.97;101048.09;4797968;29;45405;-65
2021/06/19 01:18:55;;;;;;;;;3.00;3.00;;;;;23.65;58.09;101027.53;4796659;29;57736;-65
2021/06/19 01:21:21;;;;;;;;;4.25;4.00;;;;;23.68;58.38;101030.84;4812801;29;45979;-65
2021/06/19 01:23:47;;;;;;;;;3.50;3.50;;;;;23.65;58.20;101025.66;4797936;29;45324;-65
2021/06/19 01:26:16;;;;;;;;;3.50;3.50;;;;;23.58;58.26;101019.00;4797627;29;45299;-65
2021/06/19 01:28:42;;;;;;;;;5.50;4.00;;;;;23.54;58.01;101020.25;4797788;29;45365;-65
2021/06/19 01:31:08;;;;;;;;;3.75;3.75;;;;;23.55;57.76;101026.56;4812691;29;46129;-65
2021/06/19 01:33:34;;;;;;;;;5.00;5.00;;;;;23.55;58.14;101038.31;4812728;29;45440;-66
2021/06/19 01:35:59;;;;;;;;;4.25;4.25;;;;;23.51;58.02;101042.28;4829329;29;45322;-66
2021/06/19 01:38:24;;;;;;;;;3.00;3.00;;;;;23.49;58.04;101047.00;4829127;29;45427;-66
2021/06/19 01:40:50;;;;;;;;;2.75;2.00;;;;;23.44;58.41;101043.81;4826674;29;70025;-65
2021/06/19 01:43:15;;;;;;;;;3.50;3.50;;;;;23.49;58.00;101064.22;4797354;29;45441;-65
2021/06/19 01:45:41;;;;;;;;;6.00;3.25;;;;;23.46;58.39;101058.16;4812792;29;45246;-66
2021/06/19 01:48:07;;;;;;;;;3.75;3.75;;;;;23.45;58.41;101067.31;4811895;29;62426;-66
2021/06/19 01:50:33;;;;;;;;;3.25;3.25;;;;;23.43;58.17;101067.44;4812478;29;45336;-66
2021/06/19 01:52:59;;;;;;;;;3.00;3.00;;;;;23.36;58.49;101055.31;4829073;29;45786;-66
2021/06/19 01:55:25;;;;;;;;;2.25;2.25;;;;;23.39;58.50;101070.53;4782244;29;45326;-65
2021/06/19 01:57:52;;;;;;;;;4.00;4.00;;;;;23.39;58.40;101065.97;4812364;29;45439;-65
2021/06/19 02:00:18;;;;;;;;;4.00;4.00;;;;;23.35;58.43;101060.88;4797196;29;45285;-65
2021/06/19 02:02:44;;;;;;;;;5.00;4.25;;;;;23.35;58.23;101058.16;4812380;29;45564;-65
2021/06/19 02:05:10;;;;;;;;;5.00;4.00;;;;;23.35;58.39;101059.00;4796651;29;53910;-66
2021/06/19 02:07:52;;;;;;;;;3.00;3.00;;;;;23.35;58.39;101055.44;4797268;29;45486;-66
2021/06/19 02:10:18;;;;;;;;;4.00;4.00;;;;;23.30;58.33;101055.81;4811914;29;46334;-66
2021/06/19 02:12:43;;;;;;;;;2.75;2.75;;;;;23.28;58.78;101065.97;4812377;29;45624;-66
2021/06/19 02:15:09;;;;;;;;;3.25;3.25;;;;;23.27;58.59;101064.22;4797108;29;45336;-66
2021/06/19 02:17:34;;;;;;;;;4.75;4.00;;;;;23.25;58.63;101056.16;4812092;29;45446;-66
2021/06/19 02:20:00;;;;;;;;;3.75;3.75;;;;;23.25;58.75;101061.63;4796330;29;45441;-66
2021/06/19 02:22:25;;;;;;;;;3.75;3.75;;;;;23.26;58.77;101057.06;4811932;29;57236;-66
2021/06/19 02:24:51;;;;;;;;;5.75;4.75;;;;;23.24;58.68;101042.72;4811284;29;64788;-66
2021/06/19 02:27:16;;;;;;;;;4.75;4.75;;;;;23.19;58.92;101040.34;4827791;29;60515;-66
2021/06/19 02:29:41;;;;;;;;;3.25;3.25;;;;;23.20;58.91;101042.06;4811043;29;70648;-66
2021/06/19 02:32:07;;;;;;;;;4.50;3.75;;;;;23.21;59.33;101045.69;4796777;29;45343;-66
2021/06/19 02:34:33;;;;;;;;;8.00;6.00;;;;;23.12;59.10;101039.97;4812183;29;45248;-65
2021/06/19 02:36:58;;;;;;;;;10.75;9.25;;;;;23.11;59.23;101051.00;4828155;29;50775;-66
2021/06/19 02:39:24;;;;;;;;;6.75;6.75;;;;;23.12;59.51;101063.59;4795819;29;70098;-66
2021/06/19 02:41:50;;;;;;;;;8.75;8.75;;;;;23.08;59.84;101073.88;4796458;29;45340;-66
2021/06/19 02:44:15;;;;;;;;;5.50;5.50;;;;;23.08;59.81;101075.75;4811949;29;45327;-66
2021/06/19 02:46:40;;;;;;;;;9.50;7.50;;;;;23.03;59.71;101065.19;4827664;29;64158;-66
2021/06/19 02:49:06;;;;;;;;;8.00;8.00;;;;;23.01;60.14;101079.91;4811244;29;56159;-66
2021/06/19 02:51:31;;;;;;;;;9.00;8.25;;;;;22.98;59.72;101080.16;4827639;29;65709;-65
2021/06/19 02:53:56;;;;;;;;;6.25;6.25;;;;;22.94;60.06;101077.66;4827526;29;65424;-66
2021/06/19 02:56:22;;;;;;;;;7.50;7.25;;;;;22.96;60.29;101076.69;4810773;29;64056;-66
2021/06/19 02:58:47;;;;;;;;;6.25;6.25;;;;;22.97;60.28;101079.28;4828070;29;45304;-66
2021/06/19 03:01:13;;;;;;;;;6.25;5.25;;;;;22.93;60.54;101070.47;4828316;29;45461;-65
2021/06/19 03:03:38;;;;;;;;;5.75;5.00;;;;;22.94;60.54;101068.66;4810596;29;63338;-66
2021/06/19 03:06:04;;;;;;;;;6.75;6.75;;;;;22.94;60.70;101064.06;4827620;29;61329;-66
2021/06/19 03:08:29;;;;;;;;;7.00;4.75;;;;;22.97;60.00;101083.84;4797411;29;45415;-66
2021/06/19 03:10:55;;;;;;;;;6.00;6.00;;;;;22.99;59.88;101082.75;4831101;29;45294;-65
2021/06/19 03:13:21;;;;;;;;;6.00;5.00;;;;;22.92;60.01;101071.50;4814894;29;45348;-65
2021/06/19 03:15:46;;;;;;;;;5.25;5.25;;;;;22.96;60.09;101074.84;4813836;29;71291;-66
2021/06/19 03:18:11;;;;;;;;;4.75;4.25;;;;;22.96;60.12;101065.81;4814362;29;47693;-66
2021/06/19 03:20:37;;;;;;;;;7.00;5.50;;;;;23.00;60.12;101072.72;4798467;29;59206;-66
2021/06/19 03:23:02;;;;;;;;;5.00;5.00;;;;;23.00;60.33;101072.72;4814151;29;52095;-65
2021/06/19 03:25:33;;;;;;;;;6.00;6.00;;;;;22.99;60.31;101062.81;4814422;29;45522;-66
2021/06/19 03:27:59;;;;;;;;;5.50;5.50;;;;;22.96;59.90;101057.63;4814387;29;46245;-66
2021/06/19 03:30:28;;;;;;;;;6.00;5.75;;;;;22.94;59.82;101055.91;4799447;29;45410;-66
2021/06/19 03:32:53;;;;;;;;;5.00;4.50;;;;;22.93;60.25;101056.88;4799753;29;45499;-65
2021/06/19 03:35:19;;;;;;;;;4.00;4.00;;;;;22.91;60.06;101067.03;4814626;29;45403;-65
2021/06/19 03:37:45;;;;;;;;;6.75;6.75;;;;;22.92;59.86;101071.50;4798915;29;48042;-66
2021/06/19 03:40:10;;;;;;;;;5.00;5.00;;;;;22.94;59.94;101058.63;4799246;29;45705;-66
2021/06/19 03:42:39;;;;;;;;;4.50;4.50;;;;;22.98;60.00;101061.09;4799093;29;45260;-66
2021/06/19 03:45:05;;;;;;;;;4.75;4.00;;;;;22.92;59.82;101055.16;4830964;29;45348;-66
2021/06/19 03:47:31;;;;;;;;;4.75;4.75;;;;;22.93;60.00;101061.47;4813818;29;47098;-66
2021/06/19 03:49:56;;;;;;;;;5.75;5.25;;;;;22.95;59.76;101051.31;4813704;29;66312;-66
2021/06/19 03:52:21;;;;;;;;;5.00;5.00;;;;;22.94;59.82;101055.91;4830755;29;45198;-66
2021/06/19 03:54:48;;;;;;;;;5.00;5.00;;;;;22.94;59.84;101057.75;4814141;29;52178;-66
2021/06/19 03:57:30;;;;;;;;;5.00;4.50;;;;;22.94;59.42;101068.66;4813930;29;45329;-66
2021/06/19 03:59:55;;;;;;;;;4.00;4.00;;;;;22.94;59.66;101068.66;4815506;29;45583;-66
2021/06/19 04:02:21;;;;;;;;;4.50;4.50;;;;;22.91;59.76;101069.75;4798080;29;59203;-66
2021/06/19 04:04:46;;;;;;;;;4.00;4.00;;;;;22.91;59.66;101058.84;4799003;29;45360;-66
2021/06/19 04:07:12;;;;;;;;;5.25;4.25;;;;;22.91;60.04;101061.56;4830225;29;46160;-66
2021/06/19 04:09:38;;;;;;;;;5.25;4.00;;;;;22.95;59.69;101062.19;4814167;29;45435;-65
2021/06/19 04:12:04;;;;;;;;;4.25;3.50;;;;;22.92;59.53;101052.44;4830362;29;45203;-65
2021/06/19 04:14:29;;;;;;;;;3.00;3.00;;;;;22.92;58.97;101057.88;4798663;29;45280;-66
2021/06/19 04:16:54;;;;;;;;;4.00;3.00;;;;;22.94;59.46;101058.63;4812968;29;65546;-66
2021/06/19 04:19:20;;;;;;;;;3.50;3.50;;;;;22.96;59.34;101072.09;4829226;29;45413;-65
2021/06/19 04:21:45;;;;;;;;;3.50;3.50;;;;;22.95;59.35;101073.09;4827690;29;63629;-66
2021/06/19 04:24:11;;;;;;;;;4.00;4.00;;;;;22.96;59.46;101076.69;4797853;29;72342;-66
2021/06/19 04:26:36;;;;;;;;;3.75;3.75;;;;;22.96;59.19;101068.53;4829878;29;45208;-66
2021/06/19 04:29:01;;;;;;;;;3.25;3.25;;;;;22.97;59.53;101067.53;4813068;29;62556;-65
2021/06/19 04:31:27;;;;;;;;;4.00;4.00;;;;;22.97;59.42;101062.06;4812839;29;67126;-66
2021/06/19 04:33:52;;;;;;;;;4.00;4.00;;;;;22.97;59.11;101057.53;4830017;29;46661;-65
2021/06/19 04:36:19;;;;;;;;;3.75;3.25;;;;;22.98;59.15;101066.53;4812921;29;65880;-66
2021/06/19 04:38:44;;;;;;;;;6.00;4.75;;;;;22.94;59.16;101061.34;4798715;29;45313;-66
2021/06/19 04:41:22;;;;;;;;;3.25;3.25;;;;;23.02;59.00;101079.78;4782575;29;60851;-66
2021/06/19 04:46:13;;;;;;;;;3.75;2.75;;;;;23.00;59.20;101059.13;4813428;29;45255;-66
2021/06/19 04:48:38;;;;;;;;;4.00;3.00;;;;;23.01;58.52;101055.41;4812431;29;67010;-66
2021/06/19 04:51:04;;;;;;;;;3.00;3.00;;;;;22.99;59.08;101080.03;4813691;29;45610;-66
2021/06/19 04:53:29;;;;;;;;;4.00;3.00;;;;;22.98;59.10;101074.72;4813339;29;45515;-66
2021/06/19 04:55:55;;;;;;;;;3.00;3.00;;;;;22.98;58.99;101070.13;4828540;29;73159;-66
2021/06/19 04:58:20;;;;;;;;;4.00;4.00;;;;;22.96;59.25;101080.28;4813497;29;45534;-66
2021/06/19 05:00:46;;;;;;;;;3.00;3.00;;;;;22.94;59.03;101076.81;4798257;29;45369;-66
2021/06/19 05:03:13;;;;;;;;;4.25;4.25;;;;;22.91;58.90;101077.06;4812659;29;58147;-65
2021/06/19 05:05:38;;;;;;;;;5.00;3.75;;;;;22.90;58.87;101072.59;4813462;29;46042;-66
2021/06/19 05:08:04;;;;;;;;;3.50;3.50;;;;;22.83;58.83;101066.75;4813045;29;45402;-66
2021/06/19 05:10:30;;;;;;;;;4.00;3.25;;;;;22.84;59.04;101071.22;4792066;29;45338;-66
2021/06/19 05:12:55;;;;;;;;;4.00;4.00;;;;;22.77;59.39;101078.16;4821846;29;48660;-65
2021/06/19 05:15:24;;;;;;;;;4.50;3.50;;;;;22.80;59.64;101088.78;4797794;29;45989;-65
2021/06/19 05:17:49;;;;;;;;;4.00;4.00;;;;;22.78;59.50;101082.59;4829203;29;45461;-66
2021/06/19 05:20:14;;;;;;;;;5.50;5.00;;;;;22.79;59.60;101084.34;4829109;29;45256;-66
2021/06/19 05:22:40;;;;;;;;;4.00;4.00;;;;;22.78;59.72;101077.16;4812251;29;62835;-65
2021/06/19 05:25:05;;;;;;;;;4.00;4.00;;;;;22.82;59.67;101086.81;4812729;29;45549;-66
2021/06/19 05:27:31;;;;;;;;;4.00;4.00;;;;;22.85;59.48;101086.56;4802877;29;46011;-65
2021/06/19 05:29:56;;;;;;;;;7.00;5.50;;;;;22.86;60.20;101085.56;4813027;29;45585;-66
2021/06/19 05:32:23;;;;;;;;;4.75;4.00;;;;;22.90;59.47;101091.63;4811565;29;64118;-66
2021/06/19 05:34:48;;;;;;;;;4.25;4.25;;;;;22.93;59.18;101091.41;4812942;29;45400;-66
2021/06/19 05:37:14;;;;;;;;;5.00;5.00;;;;;22.92;60.06;101078.75;4796434;29;70966;-66
2021/06/19 05:39:39;;;;;;;;;5.00;5.00;;;;;22.93;59.84;101081.38;4812749;29;45428;-65
2021/06/19 05:42:05;;;;;;;;;3.75;3.75;;;;;22.93;59.89;101075.91;4812251;29;45380;-66
2021/06/19 05:44:30;;;;;;;;;5.00;5.00;;;;;22.99;59.65;101079.16;4797295;29;46274;-66
2021/06/19 05:46:56;;;;;;;;;4.00;4.00;;;;;22.98;59.41;101066.53;4827698;29;45301;-66
2021/06/19 05:49:21;;;;;;;;;5.50;5.00;;;;;22.99;58.98;101066.44;4812698;29;45439;-66
2021/06/19 05:51:47;;;;;;;;;5.25;5.00;;;;;22.93;59.69;101045.97;4828203;29;63582;-66
2021/06/19 05:54:12;;;;;;;;;6.50;5.50;;;;;23.05;59.46;101067.78;4808694;29;71276;-65
2021/06/19 05:56:37;;;;;;;;;5.00;5.00;;;;;23.01;59.22;101059.00;4822766;29;61634;-66
2021/06/19 05:59:03;;;;;;;;;5.25;5.25;;;;;22.98;59.45;101063.81;4828233;29;59733;-66
2021/06/19 06:01:31;;;;;;;;;7.00;7.00;;;;;23.01;59.64;101075.31;4812400;29;45210;-65
2021/06/19 06:03:57;;;;;;;;;9.00;8.00;;;;;22.99;59.42;101058.25;4812318;29;46264;-65
2021/06/19 06:06:23;;;;;;;;;8.75;7.25;;;;;23.00;59.92;101061.84;4809452;29;46053;-66
2021/06/19 06:08:48;;;;;;;;;9.25;8.25;;;;;23.03;59.65;101067.03;4794866;29;45371;-65
2021/06/19 06:11:13;;;;;;;;;8.00;8.00;;;;;23.02;59.84;101059.84;4808953;29;63976;-65
2021/06/19 06:13:39;;;;;;;;;8.00;8.00;;;;;23.00;59.82;101056.38;4810875;29;45579;-65
2021/06/19 06:16:05;;;;;;;;;9.25;8.50;;;;;22.97;60.18;101059.34;4811307;29;64029;-66
2021/06/19 06:18:30;;;;;;;;;8.25;8.25;;;;;22.93;59.68;101048.69;4796799;29;45359;-66
2021/06/19 06:20:56;;;;;;;;;7.50;7.50;;;;;22.89;59.58;101044.50;4828095;29;45441;-65
2021/06/19 06:23:23;;;;;;;;;6.75;6.75;;;;;22.92;59.86;101049.72;4796616;29;47050;-66
2021/06/19 06:25:50;;;;;;;;;9.00;9.00;;;;;22.86;59.61;101039.31;4796473;29;45410;-66
2021/06/19 06:28:16;;;;;;;;;9.00;9.00;;;;;22.85;60.27;101047.59;4778146;29;46513;-65
2021/06/19 06:30:42;;;;;;;;;8.25;8.25;;;;;22.86;59.82;101052.91;4802803;29;45522;-65
2021/06/19 06:33:08;;;;;;;;;8.00;8.00;;;;;22.87;60.27;101046.50;4806408;29;46880;-65
2021/06/19 06:35:33;;;;;;;;;13.25;10.00;;;;;22.87;60.27;101049.22;4781373;29;45404;-65
2021/06/19 06:37:59;;;;;;;;;6.50;6.00;;;;;22.92;60.21;101046.09;4811945;29;45430;-65
2021/06/19 06:40:25;;;;;;;;;11.50;8.00;;;;;22.94;60.57;101045.00;4793464;29;45628;-65
2021/06/19 06:42:50;;;;;;;;;9.00;9.00;;;;;22.99;59.94;101060.97;4779636;29;47203;-65
2021/06/19 06:45:16;;;;;;;;;7.50;7.50;;;;;22.96;60.03;101066.66;4809138;29;45397;-65
2021/06/19 06:47:42;;;;;;;;;10.00;9.25;;;;;22.93;59.98;101067.75;4800005;29;45402;-65
2021/06/19 06:50:08;;;;;;;;;9.00;9.00;;;;;22.94;59.97;101079.53;4795775;29;69754;-65
2021/06/19 06:52:33;;;;;;;;;10.25;8.50;;;;;22.92;60.01;101074.22;4815019;29;46054;-65
2021/06/19 06:54:59;;;;;;;;;10.00;9.00;;;;;22.97;60.14;101079.28;4815120;29;45182;-65
2021/06/19 06:57:24;;;;;;;;;8.50;8.50;;;;;22.98;59.78;101075.56;4817269;29;63201;-65
2021/06/19 06:59:50;;;;;;;;;8.25;8.00;;;;;23.03;59.84;101083.38;4807961;29;72893;-65
2021/06/19 07:02:15;;;;;;;;;6.50;6.50;;;;;23.07;60.06;101074.00;4798913;29;45188;-66
2021/06/19 07:04:40;;;;;;;;;8.00;7.25;;;;;23.11;60.12;101075.50;4810719;29;45257;-65
2021/06/19 07:07:06;;;;;;;;;7.25;7.25;;;;;23.16;60.24;101089.59;4827267;29;45705;-66
2021/06/19 07:09:31;;;;;;;;;8.00;8.00;;;;;23.20;60.03;101101.13;4829316;29;69060;-66
2021/06/19 07:11:57;;;;;;;;;12.75;10.75;;;;;23.15;60.00;101082.41;4828797;29;46040;-66
2021/06/19 07:14:22;;;;;;;;;10.00;10.00;;;;;23.22;60.15;101080.06;4828087;29;64370;-67
2021/06/19 07:16:50;;;;;;;;;11.00;10.25;;;;;23.19;59.85;101073.03;4829406;29;45422;-67
2021/06/19 07:19:16;;;;;;;;;9.00;8.25;;;;;23.25;60.02;101077.09;4796253;29;45583;-66
2021/06/19 07:21:41;;;;;;;;;12.25;12.25;;;;;23.28;59.82;101071.41;4803083;29;50715;-66
2021/06/19 07:24:07;;;;;;;;;9.25;9.00;;;;;23.33;59.68;101069.19;4827954;29;64641;-66
2021/06/19 07:26:32;;;;;;;;;6.75;6.75;;;;;23.37;59.99;101067.06;4814297;29;45505;-66
2021/06/19 07:28:58;;;;;;;;;10.00;8.50;;;;;23.37;59.58;101062.50;4813117;29;64086;-66
2021/06/19 07:31:24;;;;;;;;;8.50;8.50;;;;;23.42;59.81;101073.00;4814329;29;46049;-66
2021/06/19 07:33:49;;;;;;;;;10.50;8.75;;;;;23.40;59.58;101062.22;4798887;29;45258;-65
2021/06/19 07:36:15;;;;;;;;;9.25;9.25;;;;;23.41;59.31;101052.22;4810943;29;56095;-65
2021/06/19 07:38:40;;;;;;;;;8.75;8.00;;;;;23.38;59.23;101033.41;4796907;29;67989;-66
2021/06/19 07:41:05;;;;;;;;;10.50;8.75;;;;;23.34;58.92;101013.72;4813865;29;45917;-66
2021/06/19 07:43:31;;;;;;;;;10.00;10.00;;;;;23.47;58.67;101010.84;4813633;29;56348;-66
2021/06/19 07:45:56;;;;;;;;;7.25;6.00;;;;;23.48;58.59;100990.78;4829569;29;45308;-65
2021/06/19 07:48:22;;;;;;;;;8.00;8.00;;;;;23.52;58.99;100975.03;4798842;29;45522;-66
2021/06/19 07:50:47;;;;;;;;;11.75;10.00;;;;;23.49;58.84;100960.69;4814115;29;45345;-65
2021/06/19 07:53:13;;;;;;;;;10.00;10.00;;;;;23.46;58.73;100965.53;4811975;29;71174;-66
2021/06/19 07:55:38;;;;;;;;;8.50;8.50;;;;;23.39;58.92;100972.47;4827820;29;45801;-65
2021/06/19 07:58:04;;;;;;;;;8.25;8.25;;;;;23.33;59.27;100971.13;4812790;29;49093;-65
2021/06/19 08:00:30;;;;;;;;;8.00;8.00;;;;;23.38;59.24;100992.53;4796222;29;46025;-65
2021/06/19 08:02:59;;;;;;;;;8.50;7.50;;;;;23.42;59.34;101002.19;4811001;29;45289;-65
2021/06/19 08:05:25;;;;;;;;;9.50;9.50;;;;;23.45;59.32;101000.06;4828755;29;45401;-66
2021/06/19 08:07:50;;;;;;;;;11.00;10.00;;;;;23.43;60.01;100982.97;4813295;29;45255;-66
2021/06/19 08:10:16;;;;;;;;;11.00;11.00;;;;;23.45;58.99;100991.88;4797751;29;45259;-66
2021/06/19 08:12:42;;;;;;;;;9.75;9.00;;;;;23.36;59.22;100987.22;4811746;29;60338;-69
2021/06/19 08:15:07;;;;;;;;;10.25;10.25;;;;;23.35;59.11;100971.84;4798674;29;45295;-66
2021/06/19 08:17:33;;;;;;;;;11.00;10.00;;;;;23.31;59.36;100963.06;4788228;29;45568;-66
2021/06/19 08:19:58;;;;;;;;;10.25;10.25;;;;;23.33;59.33;100945.75;4811597;29;48248;-66
2021/06/19 08:22:24;;;;;;;;;16.00;16.00;;;;;23.33;59.24;100933.00;4827950;29;45466;-66
2021/06/19 08:24:49;;;;;;;;;14.50;12.50;;;;;23.28;59.41;100930.66;4828524;29;45719;-66
2021/06/19 08:27:14;;;;;;;;;14.00;13.25;;;;;23.29;59.90;100956.03;4812423;29;45411;-66
2021/06/19 08:29:40;;;;;;;;;14.00;14.00;;;;;23.34;59.99;100983.75;4828410;29;45483;-66
2021/06/19 08:32:08;;;;;;;;;18.50;16.50;;;;;23.38;59.61;101000.72;4797461;29;45586;-66
2021/06/19 08:34:34;;;;;;;;;14.50;14.00;;;;;23.37;59.60;100979.91;4798629;29;45533;-66
2021/06/19 08:36:59;;;;;;;;;15.75;14.50;;;;;23.41;59.65;100974.06;4812408;29;45468;-66
2021/06/19 08:39:24;;;;;;;;;13.25;13.00;;;;;23.40;59.43;100960.59;4825468;29;48163;-66
2021/06/19 08:41:54;;;;;;;;;18.75;16.50;;;;;23.39;59.28;100958.84;4811529;29;65877;-66
2021/06/19 08:44:23;;;;;;;;;15.25;13.00;;;;;23.34;59.31;100956.53;4812915;29;45433;-66
2021/06/19 08:46:50;;;;;;;;;13.25;11.25;;;;;23.35;59.48;100952.78;4798041;29;45512;-66
2021/06/19 08:49:15;;;;;;;;;12.75;12.75;;;;;23.36;59.70;100949.09;4812483;29;46161;-66
2021/06/19 08:51:41;;;;;;;;;10.25;10.25;;;;;23.38;59.50;100946.25;4806822;29;73254;-66
2021/06/19 08:54:06;;;;;;;;;11.75;11.75;;;;;23.44;59.52;100956.63;4797731;29;45298;-66
2021/06/19 08:56:32;;;;;;;;;10.00;10.00;;;;;23.37;59.46;100942.66;4811875;29;66650;-67
2021/06/19 08:58:57;;;;;;;;;9.25;9.00;;;;;23.34;59.66;100939.28;4811888;29;62004;-66
2021/06/19 09:01:22;;;;;;;;;12.50;12.50;;;;;23.35;59.70;100935.59;4811775;29;65872;-66
2021/06/19 09:03:48;;;;;;;;;11.25;11.25;;;;;23.30;59.60;100934.13;4812616;29;45401;-66
2021/06/19 09:06:26;;;;;;;;;12.00;10.50;;;;;23.28;59.53;100927.91;4812285;29;45315;-66
2021/06/19 09:09:04;;;;;;;;;8.75;8.75;;;;;23.33;60.16;100926.69;4815168;29;45900;-66
2021/06/19 09:11:29;;;;;;;;;12.50;12.50;;;;;23.33;59.40;100923.97;4797278;29;45505;-66
2021/06/19 09:14:00;;;;;;;;;11.50;11.50;;;;;23.30;59.70;100928.69;4829040;29;45244;-66
2021/06/19 09:16:25;;;;;;;;;11.00;10.25;;;;;23.28;59.87;100935.22;4797712;29;45406;-66
2021/06/19 09:18:50;;;;;;;;;11.00;11.00;;;;;23.23;59.78;100918.41;4811282;29;65550;-66
2021/06/19 09:21:16;;;;;;;;;11.50;10.00;;;;;23.29;59.36;100935.09;4828177;29;68528;-65
2021/06/19 09:23:43;;;;;;;;;10.25;10.25;;;;;23.28;59.80;100927.06;4796833;29;61369;-65
2021/06/19 09:26:19;;;;;;;;;10.50;10.25;;;;;23.30;59.79;100925.97;4812781;29;45179;-66
2021/06/19 09:29:06;;;;;;;;;10.25;10.25;;;;;23.31;59.96;100930.41;4812514;29;45313;-66
2021/06/19 09:31:39;;;;;;;;;13.25;10.75;;;;;23.32;59.75;100936.69;4828990;29;45526;-66
2021/06/19 09:34:13;;;;;;;;;11.25;10.00;;;;;23.35;60.00;100924.69;4812555;29;45367;-66
2021/06/19 09:36:42;;;;;;;;;10.75;10.75;;;;;23.42;60.58;100931.34;4797410;29;45276;-66
2021/06/19 09:39:09;;;;;;;;;10.00;10.00;;;;;23.45;60.12;100926.50;4812351;29;46983;-67
2021/06/19 09:41:40;;;;;;;;;9.75;9.25;;;;;23.55;60.19;100934.78;4828366;29;45520;-67
2021/06/19 09:44:06;;;;;;;;;9.50;9.50;;;;;23.60;59.94;100932.53;4812618;29;45374;-66
2021/06/19 09:46:31;;;;;;;;;11.00;11.00;;;;;23.58;59.58;100930.94;4827420;29;48031;-66
2021/06/19 09:49:08;;;;;;;;;9.25;9.25;;;;;23.59;59.64;100932.66;4796894;29;45538;-66
2021/06/19 09:51:34;;;;;;;;;9.00;9.00;;;;;23.58;59.59;100929.06;4810467;29;45639;-66
2021/06/19 09:54:06;;;;;;;;;8.00;7.00;;;;;23.63;59.71;100929.53;4825069;29;65429;-66
2021/06/19 09:56:47;;;;;;;;;10.25;10.25;;;;;23.71;60.03;100918.00;4811732;29;45587;-66
2021/06/19 09:59:39;;;;;;;;;12.00;11.25;;;;;23.79;59.96;100922.78;4797030;29;45361;-67
2021/06/19 10:02:20;;;;;;;;;14.50;12.75;;;;;23.83;59.64;100930.59;4806893;29;45402;-67
2021/06/19 10:04:51;;;;;;;;;10.75;10.25;;;;;23.84;59.45;100917.88;4793750;29;45208;-67
2021/06/19 10:07:16;;;;;;;;;11.00;10.00;;;;;23.89;59.42;100914.72;4810271;29;46107;-67
2021/06/19 10:09:41;;;;;;;;;12.00;10.00;;;;;23.90;59.75;100906.41;4809854;29;67202;-67
2021/06/19 10:12:07;;;;;;;;;9.00;9.00;;;;;23.95;59.73;100903.28;4796042;29;62540;-67
2021/06/19 10:14:33;;;;;;;;;11.00;11.00;;;;;23.96;59.16;100908.63;4796571;29;45306;-67
2021/06/19 10:16:58;;;;;;;;;11.75;11.75;;;;;24.01;59.34;100900.03;4796405;29;45514;-67
2021/06/19 10:19:25;;;;;;;;;13.00;13.00;;;;;24.02;59.12;100901.75;4796282;29;45589;-67
2021/06/19 10:21:54;;;;;;;;;10.50;10.50;;;;;24.07;59.15;100901.38;4811126;29;45194;-67
2021/06/19 10:24:21;;;;;;;;;11.75;11.75;;;;;24.11;59.57;100894.66;4810818;29;45552;-71
2021/06/19 10:26:47;;;;;;;;;14.50;13.25;;;;;24.12;59.18;100886.31;4811238;29;45986;-71
2021/06/19 10:29:12;;;;;;;;;10.75;10.00;;;;;24.15;59.20;100891.50;4810911;29;46242;-71
2021/06/19 10:31:43;;;;;;;;;11.50;11.50;;;;;24.18;59.63;100883.06;4796530;29;45604;-71
2021/06/19 10:34:23;;;;;;;;;12.25;12.25;;;;;24.25;59.90;100891.56;4827563;29;45432;-70
2021/06/19 10:36:50;;;;;;;;;11.25;11.00;;;;;24.31;59.58;100882.84;4828133;29;45326;-71
2021/06/19 10:39:35;;;;;;;;;11.00;11.00;;;;;24.37;59.38;100887.78;4826972;29;46209;-71
2021/06/19 10:42:01;;;;;;;;;11.75;10.50;;;;;24.43;58.73;100878.16;4826729;29;47008;-71
2021/06/19 10:44:49;;;;;;;;;11.75;11.50;;;;;24.51;58.87;100877.50;4828157;29;45435;-71
2021/06/19 10:47:18;;;;;;;;;10.00;10.00;;;;;24.57;58.66;100860.59;4827437;29;45343;-71
2021/06/19 10:49:45;;;;;;;;;11.00;11.00;;;;;24.60;58.59;100863.91;4811844;29;45571;-71
2021/06/19 10:52:27;;;;;;;;;10.50;10.25;;;;;24.59;58.90;100850.41;4826337;29;45286;-70
2021/06/19 10:55:08;;;;;;;;;9.00;9.00;;;;;24.69;58.46;100856.78;4796439;29;45562;-69
2021/06/19 10:57:51;;;;;;;;;13.75;12.75;;;;;24.66;58.33;100847.97;4827870;29;45477;-71
2021/06/19 11:00:36;;;;;;;;;12.50;12.25;;;;;24.71;58.31;100837.53;4802503;29;47253;-71
2021/06/19 11:03:03;;;;;;;;;12.25;11.25;;;;;24.70;58.94;100833.06;4804810;29;45333;-71
2021/06/19 11:05:44;;;;;;;;;8.50;8.50;;;;;24.78;59.36;100842.28;4811720;29;45458;-70
2021/06/19 11:08:13;;;;;;;;;11.75;11.50;;;;;24.82;58.93;100831.09;4827919;29;45497;-71
2021/06/19 11:10:57;;;;;;;;;15.25;13.25;;;;;24.83;58.63;100819.16;4811686;29;45492;-71
2021/06/19 11:13:28;;;;;;;;;13.50;12.50;;;;;24.96;58.66;100833.41;4801932;29;45460;-71
2021/06/19 11:16:02;;;;;;;;;13.25;13.25;;;;;24.98;57.86;100828.69;4827624;29;45242;-71
2021/06/19 11:19:00;;;;;;;;;12.75;12.75;;;;;25.02;57.53;100830.09;4826069;29;45478;-71
2021/06/19 11:21:28;;;;;;;;;10.25;10.25;;;;;25.05;58.00;100827.09;4786912;29;46186;-71
2021/06/19 11:24:02;;;;;;;;;13.25;13.25;;;;;25.10;56.58;100823.94;4810873;29;45709;-71